Time;durP1;ratioP1;P1;durP2;ratioP2;P2;SDS_P1;SDS_P2;PMS_P1;PMS_P2;Temp;Humidity;BMP_temperature;BMP_pressure;BME280_temperature;BME280_humidity;BME280_pressure;Samples;Min_cycle;Max_cycle;Signal;HPM_P1;HPM_P2
2023/08/04 00:01:51;;;;;;;7.38;2.00;;;16.50;99.90;;;;;;4807172;29;20053;-50
2023/08/04 00:04:16;;;;;;;8.80;2.40;;;16.50;99.90;;;;;;4806909;29;20483;-52
2023/08/04 00:06:42;;;;;;;7.40;2.25;;;16.50;99.90;;;;;;4805786;29;20035;-50
2023/08/04 00:09:08;;;;;;;6.35;2.55;;;16.50;99.90;;;;;;4806650;29;20042;-49
2023/08/04 00:11:34;;;;;;;10.57;2.50;;;16.50;99.90;;;;;;4806972;29;20043;-51
2023/08/04 00:14:00;;;;;;;7.18;2.25;;;16.50;99.90;;;;;;4806990;29;20039;-50
2023/08/04 00:16:26;;;;;;;13.18;2.75;;;16.40;99.90;;;;;;4806524;29;20091;-53
2023/08/04 00:18:51;;;;;;;8.02;2.28;;;16.40;99.90;;;;;;4806609;29;20039;-50
2023/08/04 00:21:17;;;;;;;6.72;2.78;;;16.40;99.90;;;;;;4807049;29;20081;-53
2023/08/04 00:23:43;;;;;;;8.43;2.20;;;16.30;99.90;;;;;;4805294;29;20046;-49
2023/08/04 00:26:08;;;;;;;8.48;2.50;;;16.20;99.90;;;;;;4806787;29;20480;-51
2023/08/04 00:28:34;;;;;;;8.73;2.25;;;16.20;99.90;;;;;;4806239;29;20046;-48
2023/08/04 00:31:00;;;;;;;8.02;2.72;;;16.20;99.90;;;;;;4806667;29;20081;-52
2023/08/04 00:33:26;;;;;;;9.77;2.38;;;16.10;99.90;;;;;;4806883;29;20046;-51
2023/08/04 00:35:51;;;;;;;7.65;2.53;;;16.10;99.90;;;;;;4806349;29;20131;-52
2023/08/04 00:38:17;;;;;;;12.32;2.63;;;16.10;99.90;;;;;;4806187;29;20138;-50
2023/08/04 00:40:43;;;;;;;9.30;3.08;;;16.00;99.90;;;;;;4806533;29;20042;-51
2023/08/04 00:43:08;;;;;;;10.13;3.47;;;16.00;99.90;;;;;;4806197;29;20515;-53
2023/08/04 00:45:34;;;;;;;9.02;2.60;;;16.00;99.90;;;;;;4806532;29;20100;-52
2023/08/04 00:48:01;;;;;;;7.28;2.58;;;15.90;99.90;;;;;;4806300;29;20046;-52
2023/08/04 00:50:27;;;;;;;6.47;2.13;;;15.90;99.90;;;;;;4806500;29;20089;-52
2023/08/04 00:52:53;;;;;;;8.00;2.90;;;15.80;99.90;;;;;;4805169;29;20451;-49
2023/08/04 00:55:19;;;;;;;6.10;2.30;;;15.90;99.90;;;;;;4806326;29;20080;-51
2023/08/04 00:57:47;;;;;;;8.70;2.38;;;15.90;99.90;;;;;;4805649;29;20094;-51
2023/08/04 01:00:13;;;;;;;7.25;1.80;;;15.70;99.90;;;;;;4805770;29;20042;-49
2023/08/04 01:02:38;;;;;;;8.25;1.90;;;15.70;99.90;;;;;;4806318;29;20050;-52
2023/08/04 01:05:06;;;;;;;5.18;1.60;;;15.70;99.90;;;;;;4803920;29;20042;-52
2023/08/04 01:07:40;;;;;;;6.03;1.60;;;15.80;99.90;;;;;;4806116;29;20035;-49
2023/08/04 01:10:23;;;;;;;6.30;1.95;;;15.70;99.90;;;;;;4805990;29;20054;-48
2023/08/04 01:13:00;;;;;;;5.68;1.70;;;15.70;99.90;;;;;;4806013;29;20042;-52
2023/08/04 01:15:27;;;;;;;3.90;1.50;;;15.70;99.90;;;;;;4805881;29;20113;-50
2023/08/04 01:17:54;;;;;;;4.22;1.48;;;15.80;99.90;;;;;;4805662;29;20038;-50
2023/08/04 01:20:21;;;;;;;4.90;1.65;;;15.70;99.90;;;;;;4805892;29;20042;-51
2023/08/04 01:22:46;;;;;;;6.15;1.30;;;15.70;99.90;;;;;;4805898;29;20510;-53
2023/08/04 01:25:12;;;;;;;3.72;1.35;;;15.80;99.90;;;;;;4805736;29;20031;-48
2023/08/04 01:27:43;;;;;;;5.03;1.30;;;15.70;99.90;;;;;;4805428;29;20067;-51
2023/08/04 01:30:19;;;;;;;4.18;1.27;;;15.90;99.90;;;;;;4805509;29;20126;-52
2023/08/04 01:32:46;;;;;;;6.35;1.50;;;15.70;99.90;;;;;;4805840;29;20392;-50
2023/08/04 01:35:13;;;;;;;4.28;1.15;;;15.70;99.90;;;;;;4805670;29;20043;-52
2023/08/04 01:37:39;;;;;;;3.47;1.15;;;15.70;99.90;;;;;;4805278;29;20392;-51
2023/08/04 01:40:06;;;;;;;4.88;1.20;;;15.70;99.90;;;;;;4805463;29;20116;-51
2023/08/04 01:42:31;;;;;;;4.00;1.00;;;15.70;99.90;;;;;;4805348;29;20050;-51
2023/08/04 01:44:57;;;;;;;2.55;1.00;;;15.80;99.90;;;;;;4805395;29;20039;-51
2023/08/04 01:47:23;;;;;;;3.58;1.10;;;15.70;99.90;;;;;;4804367;29;20050;-51
2023/08/04 01:49:48;;;;;;;4.53;1.10;;;15.80;99.90;;;;;;4805020;29;20455;-51
2023/08/04 01:52:14;;;;;;;4.05;1.05;;;15.70;99.90;;;;;;4805381;29;20038;-52
2023/08/04 01:54:40;;;;;;;3.53;1.15;;;15.80;99.90;;;;;;4804364;29;20043;-51
2023/08/04 01:57:06;;;;;;;2.22;0.98;;;15.80;99.90;;;;;;4803087;29;20051;-51
2023/08/04 01:59:31;;;;;;;3.42;0.95;;;15.80;99.90;;;;;;4801588;29;20080;-50
2023/08/04 02:01:57;;;;;;;2.95;1.00;;;15.70;99.90;;;;;;4804200;29;20053;-49
2023/08/04 02:04:23;;;;;;;3.70;0.93;;;15.70;99.90;;;;;;4804623;29;20071;-49
2023/08/04 02:06:48;;;;;;;3.70;0.90;;;15.70;99.90;;;;;;4804902;29;20402;-51
2023/08/04 02:09:14;;;;;;;3.92;1.00;;;15.70;99.90;;;;;;4805119;29;20053;-50
2023/08/04 02:11:41;;;;;;;4.15;1.10;;;15.60;99.90;;;;;;4804964;29;20129;-50
2023/08/04 02:14:07;;;;;;;3.95;1.13;;;15.70;99.90;;;;;;4804700;29;20046;-51
2023/08/04 02:16:33;;;;;;;5.40;1.30;;;15.70;99.90;;;;;;4804578;29;20096;-53
2023/08/04 02:19:07;;;;;;;3.60;1.30;;;15.50;99.90;;;;;;4818670;29;20051;-49
2023/08/04 02:21:33;;;;;;;3.67;1.40;;;15.50;99.90;;;;;;4804772;29;20074;-53
2023/08/04 02:23:59;;;;;;;4.93;1.20;;;15.50;99.90;;;;;;4804488;29;20484;-51
2023/08/04 02:26:25;;;;;;;3.47;1.15;;;15.50;99.90;;;;;;4804715;29;20039;-52
2023/08/04 02:28:54;;;;;;;5.13;1.40;;;15.40;99.90;;;;;;4804231;29;20085;-54
2023/08/04 02:31:22;;;;;;;5.20;1.70;;;15.40;99.90;;;;;;4804805;29;20134;-52
2023/08/04 02:33:49;;;;;;;4.03;1.20;;;15.40;99.90;;;;;;4817545;29;20050;-52
2023/08/04 02:36:15;;;;;;;6.20;1.50;;;15.60;99.90;;;;;;4803970;29;20101;-50
2023/08/04 02:38:41;;;;;;;4.65;1.40;;;15.50;99.90;;;;;;4804213;29;20115;-50
2023/08/04 02:41:09;;;;;;;6.18;1.58;;;15.60;99.90;;;;;;4804433;29;20042;-51
2023/08/04 02:43:35;;;;;;;5.88;1.30;;;15.40;99.90;;;;;;4804527;29;20074;-53
2023/08/04 02:46:01;;;;;;;10.50;2.00;;;15.60;99.90;;;;;;4803197;29;20555;-50
2023/08/04 02:48:27;;;;;;;3.60;1.40;;;15.70;99.90;;;;;;4804155;29;20398;-50
2023/08/04 02:51:07;;;;;;;6.53;1.17;;;15.70;99.90;;;;;;4804491;29;20056;-52
2023/08/04 02:53:35;;;;;;;5.18;1.35;;;15.70;99.90;;;;;;4804301;29;20121;-51
2023/08/04 02:56:10;;;;;;;4.00;1.48;;;15.60;99.90;;;;;;4802894;29;20046;-51
2023/08/04 02:58:36;;;;;;;3.70;1.30;;;15.50;99.90;;;;;;4804021;29;20079;-53
2023/08/04 03:01:02;;;;;;;5.82;1.80;;;15.60;99.90;;;;;;4803963;29;20515;-51
2023/08/04 03:03:28;;;;;;;4.78;1.70;;;15.60;99.90;;;;;;4803993;29;20039;-53
2023/08/04 03:05:57;;;;;;;6.70;1.65;;;15.60;99.90;;;;;;4802839;29;20092;-51
2023/08/04 03:08:23;;;;;;;6.28;1.58;;;15.70;99.90;;;;;;4804312;29;20402;-47
2023/08/04 03:10:49;;;;;;;5.18;1.52;;;15.70;99.90;;;;;;4804037;29;20049;-52
2023/08/04 03:13:14;;;;;;;5.15;1.55;;;15.60;99.90;;;;;;4804111;29;20039;-51
2023/08/04 03:15:41;;;;;;;4.28;1.70;;;15.50;99.90;;;;;;4802587;29;20047;-51
2023/08/04 03:18:06;;;;;;;5.95;1.52;;;15.60;99.90;;;;;;4802340;29;20096;-53
2023/08/04 03:20:38;;;;;;;6.15;1.95;;;15.60;99.90;;;;;;4802983;29;20042;-51
2023/08/04 03:23:04;;;;;;;5.57;2.03;;;15.70;99.90;;;;;;4802431;29;20062;-49
2023/08/04 03:25:30;;;;;;;4.82;1.38;;;15.60;99.90;;;;;;4804141;29;20422;-52
2023/08/04 03:27:56;;;;;;;6.38;1.95;;;15.60;99.90;;;;;;4805098;29;20047;-52
2023/08/04 03:30:21;;;;;;;7.50;2.03;;;15.60;99.90;;;;;;4806200;29;20079;-50
2023/08/04 03:32:47;;;;;;;3.80;1.33;;;15.60;99.90;;;;;;4806661;29;20395;-51
2023/08/04 03:35:13;;;;;;;3.35;1.30;;;15.70;99.90;;;;;;4805924;29;20402;-51
2023/08/04 03:37:39;;;;;;;4.95;1.60;;;15.80;99.90;;;;;;4807273;29;20060;-50
2023/08/04 03:40:06;;;;;;;5.95;1.65;;;15.80;99.90;;;;;;4807734;29;20531;-50
2023/08/04 03:42:31;;;;;;;5.22;1.60;;;15.80;99.90;;;;;;4807308;29;20084;-52
2023/08/04 03:44:57;;;;;;;5.18;1.50;;;15.70;99.90;;;;;;4806952;29;20178;-54
2023/08/04 03:47:22;;;;;;;5.10;1.55;;;15.90;99.90;;;;;;4807436;29;20058;-50
2023/08/04 03:49:48;;;;;;;5.93;1.60;;;15.90;99.90;;;;;;4804601;29;20051;-49
2023/08/04 03:52:14;;;;;;;4.93;1.65;;;15.80;99.90;;;;;;4790731;29;20514;-51
2023/08/04 03:54:40;;;;;;;4.90;1.25;;;15.70;99.90;;;;;;4806906;29;20125;-52
2023/08/04 03:57:06;;;;;;;6.45;1.30;;;15.90;99.90;;;;;;4807177;29;20054;-49
2023/08/04 03:59:32;;;;;;;5.50;1.30;;;15.80;99.90;;;;;;4807047;29;20082;-52
2023/08/04 04:01:58;;;;;;;5.97;1.45;;;15.70;99.90;;;;;;4806800;29;20113;-50
2023/08/04 04:04:23;;;;;;;4.10;1.00;;;15.80;99.90;;;;;;4807203;29;20039;-50
2023/08/04 04:06:49;;;;;;;4.22;1.10;;;15.70;99.90;;;;;;4804755;29;20146;-49
2023/08/04 04:09:15;;;;;;;3.33;1.17;;;15.80;99.90;;;;;;4806309;29;20502;-52
2023/08/04 04:11:40;;;;;;;4.55;1.50;;;15.90;99.90;;;;;;4807035;29;20471;-48
2023/08/04 04:14:09;;;;;;;3.97;0.95;;;15.90;99.90;;;;;;4807125;29;20047;-51
2023/08/04 04:16:35;;;;;;;3.38;0.93;;;15.90;99.90;;;;;;4806992;29;20051;-50
2023/08/04 04:19:01;;;;;;;4.90;1.30;;;15.90;99.90;;;;;;4806894;29;20456;-50
2023/08/04 04:21:27;;;;;;;5.00;1.08;;;15.90;99.90;;;;;;4805059;29;20054;-52
2023/08/04 04:23:52;;;;;;;8.18;1.55;;;15.80;99.90;;;;;;4806377;29;20105;-50
2023/08/04 04:26:18;;;;;;;5.15;1.30;;;15.90;99.90;;;;;;4805568;29;20100;-50
2023/08/04 04:28:44;;;;;;;4.55;1.00;;;15.90;99.90;;;;;;4806376;29;20121;-51
2023/08/04 04:31:09;;;;;;;5.10;1.30;;;16.00;99.90;;;;;;4806774;29;20372;-50
2023/08/04 04:33:35;;;;;;;5.60;1.55;;;15.90;99.90;;;;;;4806440;29;20055;-50
2023/08/04 04:36:01;;;;;;;8.77;2.17;;;16.00;99.90;;;;;;4806207;29;20047;-52
2023/08/04 04:38:28;;;;;;;4.75;1.90;;;15.90;99.90;;;;;;4806088;29;20514;-48
2023/08/04 04:41:00;;;;;;;7.10;2.03;;;15.90;99.90;;;;;;4806389;29;20051;-48
2023/08/04 04:43:26;;;;;;;4.10;1.33;;;15.90;99.90;;;;;;4806696;29;20035;-49
2023/08/04 04:45:52;;;;;;;5.43;1.65;;;15.80;99.90;;;;;;4804408;29;20050;-49
2023/08/04 04:48:19;;;;;;;4.88;1.40;;;15.90;99.90;;;;;;4806356;29;20126;-50
2023/08/04 04:50:45;;;;;;;6.10;1.67;;;15.80;99.90;;;;;;4806470;29;20369;-52
2023/08/04 04:53:11;;;;;;;5.32;1.60;;;15.80;99.90;;;;;;4806437;29;20054;-51
2023/08/04 04:55:36;;;;;;;7.32;1.40;;;15.80;99.90;;;;;;4805885;29;20518;-51
2023/08/04 04:58:05;;;;;;;4.13;1.60;;;15.80;99.90;;;;;;4806058;29;20049;-49
2023/08/04 05:00:33;;;;;;;3.75;1.48;;;15.90;99.90;;;;;;4805831;29;20142;-47
2023/08/04 05:02:59;;;;;;;4.18;1.67;;;15.90;99.90;;;;;;4804840;29;20128;-51
2023/08/04 05:05:25;;;;;;;4.93;1.67;;;15.80;99.90;;;;;;4806075;29;20442;-50
2023/08/04 05:07:51;;;;;;;4.93;1.70;;;15.80;99.90;;;;;;4806093;29;20039;-50
2023/08/04 05:10:16;;;;;;;6.65;1.80;;;15.90;99.90;;;;;;4805906;29;20495;-50
2023/08/04 05:12:42;;;;;;;4.13;1.42;;;15.90;99.90;;;;;;4804425;29;20098;-50
2023/08/04 05:15:08;;;;;;;4.85;1.73;;;16.00;99.90;;;;;;4804870;29;20065;-53
2023/08/04 05:17:35;;;;;;;4.25;1.30;;;16.00;99.90;;;;;;4805440;29;20055;-47
2023/08/04 05:20:02;;;;;;;4.30;1.40;;;16.00;99.90;;;;;;4806023;29;20046;-51
2023/08/04 05:22:28;;;;;;;4.70;1.70;;;15.90;99.90;;;;;;4805911;29;20047;-51
2023/08/04 05:24:54;;;;;;;3.95;1.30;;;16.00;99.90;;;;;;4804128;29;20369;-52
2023/08/04 05:27:20;;;;;;;5.15;1.63;;;16.10;99.90;;;;;;4805819;29;20061;-52
2023/08/04 05:29:46;;;;;;;4.68;2.15;;;16.10;99.90;;;;;;4805198;29;20098;-49
2023/08/04 05:32:12;;;;;;;3.88;1.35;;;16.10;99.90;;;;;;4804571;29;20475;-52
2023/08/04 05:34:38;;;;;;;3.75;1.70;;;16.20;99.90;;;;;;4805752;29;20039;-51
2023/08/04 05:37:04;;;;;;;6.50;1.42;;;16.00;99.90;;;;;;4805312;29;20065;-51
2023/08/04 05:39:31;;;;;;;5.20;1.55;;;16.20;99.90;;;;;;4801988;29;20054;-49
2023/08/04 05:41:57;;;;;;;6.28;1.55;;;16.10;99.90;;;;;;4805073;29;20043;-49
2023/08/04 05:44:23;;;;;;;3.67;1.40;;;16.30;99.90;;;;;;4805377;29;20043;-49
2023/08/04 05:46:48;;;;;;;4.03;1.23;;;16.30;99.90;;;;;;4798745;29;20060;-50
2023/08/04 05:49:14;;;;;;;4.20;1.10;;;16.30;99.90;;;;;;4789509;29;20196;-49
2023/08/04 05:51:40;;;;;;;3.13;1.30;;;16.30;99.90;;;;;;4788431;29;20046;-50
2023/08/04 05:54:06;;;;;;;3.85;1.10;;;16.30;99.90;;;;;;4791576;29;20043;-51
2023/08/04 05:56:31;;;;;;;4.10;1.30;;;16.40;99.90;;;;;;4789622;29;20055;-52
2023/08/04 05:58:57;;;;;;;3.65;1.10;;;16.40;99.90;;;;;;4788312;29;20123;-47
2023/08/04 06:01:25;;;;;;;4.03;1.35;;;16.30;99.90;;;;;;4789816;29;20427;-50
2023/08/04 06:03:51;;;;;;;2.25;0.98;;;16.40;99.90;;;;;;4790000;29;20049;-49
2023/08/04 06:06:17;;;;;;;2.85;0.93;;;16.40;99.90;;;;;;4790476;29;20055;-50
2023/08/04 06:08:43;;;;;;;5.03;1.10;;;16.50;99.90;;;;;;4788099;29;20100;-48
2023/08/04 06:11:09;;;;;;;4.55;1.10;;;16.60;99.90;;;;;;4788822;29;20126;-52
2023/08/04 06:13:36;;;;;;;3.35;1.10;;;16.60;99.90;;;;;;4787291;29;20057;-52
2023/08/04 06:16:02;;;;;;;2.72;0.93;;;16.70;99.90;;;;;;4786983;29;20054;-47
2023/08/04 06:18:27;;;;;;;3.22;1.10;;;16.70;99.90;;;;;;4785770;29;20031;-51
2023/08/04 06:20:53;;;;;;;2.35;0.90;;;16.70;99.90;;;;;;4789549;29;20047;-53
2023/08/04 06:23:19;;;;;;;2.10;0.90;;;16.70;99.90;;;;;;4787502;29;20568;-53
2023/08/04 06:25:44;;;;;;;4.32;1.20;;;16.70;99.90;;;;;;4789549;29;20062;-49
2023/08/04 06:28:10;;;;;;;2.78;1.10;;;16.80;99.90;;;;;;4785980;29;20047;-50
2023/08/04 06:30:36;;;;;;;4.45;1.20;;;16.90;99.90;;;;;;4787114;29;20047;-51
2023/08/04 06:33:02;;;;;;;4.28;1.10;;;16.80;99.90;;;;;;4789722;29;20391;-49
2023/08/04 06:35:27;;;;;;;3.92;0.82;;;16.90;99.90;;;;;;4787508;29;20047;-51
2023/08/04 06:37:53;;;;;;;2.58;1.20;;;16.90;99.90;;;;;;4792723;29;20062;-51
2023/08/04 06:40:19;;;;;;;3.45;1.20;;;17.00;99.90;;;;;;4797285;29;20521;-49
2023/08/04 06:42:45;;;;;;;3.80;1.00;;;17.00;99.90;;;;;;4799565;29;20061;-51
2023/08/04 06:45:11;;;;;;;3.67;1.20;;;17.00;99.90;;;;;;4797826;29;20070;-51
2023/08/04 06:47:36;;;;;;;3.40;1.10;;;17.00;99.90;;;;;;4802109;29;20042;-51
2023/08/04 06:50:03;;;;;;;2.70;1.00;;;17.00;99.90;;;;;;4802508;29;20050;-51
2023/08/04 06:52:30;;;;;;;1.65;0.80;;;17.00;99.90;;;;;;4801823;29;20391;-48
2023/08/04 06:54:56;;;;;;;4.40;1.05;;;16.90;99.90;;;;;;4800112;29;20092;-49
2023/08/04 06:57:22;;;;;;;4.28;1.13;;;16.90;99.90;;;;;;4801037;29;20500;-51
2023/08/04 06:59:47;;;;;;;2.83;0.98;;;16.90;99.90;;;;;;4803000;29;20066;-51
2023/08/04 07:02:13;;;;;;;3.97;1.60;;;16.90;99.90;;;;;;4801574;29;20542;-52
2023/08/04 07:04:39;;;;;;;5.03;1.90;;;16.90;99.90;;;;;;4802334;29;20396;-52
2023/08/04 07:07:05;;;;;;;6.18;2.08;;;16.90;99.90;;;;;;4802741;29;20051;-51
2023/08/04 07:09:30;;;;;;;4.20;1.95;;;16.90;99.90;;;;;;4803461;29;20042;-51
2023/08/04 07:11:56;;;;;;;4.65;1.77;;;16.80;99.90;;;;;;4802949;29;20057;-49
2023/08/04 07:14:22;;;;;;;3.75;1.50;;;16.90;99.90;;;;;;4801272;29;20455;-49
2023/08/04 07:16:48;;;;;;;5.72;1.70;;;16.70;99.90;;;;;;4801134;29;20040;-50
2023/08/04 07:19:15;;;;;;;4.28;1.42;;;16.70;99.90;;;;;;4800592;29;20047;-48
2023/08/04 07:21:40;;;;;;;3.28;1.20;;;16.70;99.90;;;;;;4803293;29;20047;-50
2023/08/04 07:24:07;;;;;;;2.20;0.88;;;16.80;99.90;;;;;;4802448;29;20568;-47
2023/08/04 07:26:34;;;;;;;2.65;0.90;;;16.70;99.90;;;;;;4800440;29;20046;-50
2023/08/04 07:29:00;;;;;;;2.22;0.80;;;16.60;99.90;;;;;;4800149;29;20130;-50
2023/08/04 07:31:26;;;;;;;1.90;0.95;;;16.40;99.90;;;;;;4799583;29;20035;-50
2023/08/04 07:33:51;;;;;;;4.65;1.20;;;16.50;99.90;;;;;;4802369;29;20088;-51
2023/08/04 07:36:17;;;;;;;2.70;1.20;;;16.40;99.90;;;;;;4801146;29;20058;-49
2023/08/04 07:38:43;;;;;;;2.78;1.30;;;16.40;99.90;;;;;;4801236;29;20485;-46
2023/08/04 07:41:16;;;;;;;4.22;1.40;;;16.30;99.90;;;;;;4800874;29;20054;-52
2023/08/04 07:43:41;;;;;;;3.08;1.60;;;16.40;99.90;;;;;;4797825;29;20108;-51
2023/08/04 07:46:23;;;;;;;4.63;1.45;;;16.30;99.90;;;;;;4802834;29;20055;-49
2023/08/04 07:48:50;;;;;;;3.03;1.48;;;16.40;99.90;;;;;;4800840;29;20043;-50
2023/08/04 07:51:16;;;;;;;4.03;1.40;;;16.60;99.90;;;;;;4800482;29;20081;-48
2023/08/04 07:53:42;;;;;;;3.70;1.75;;;16.60;99.90;;;;;;4799317;29;20074;-47
2023/08/04 07:56:08;;;;;;;4.13;1.35;;;16.60;99.90;;;;;;4801369;29;20492;-50
2023/08/04 07:58:33;;;;;;;3.85;1.40;;;16.60;99.90;;;;;;4802355;29;20092;-50
2023/08/04 08:00:59;;;;;;;5.20;1.80;;;16.70;99.90;;;;;;4799027;29;20054;-50
2023/08/04 08:03:25;;;;;;;4.43;1.60;;;16.80;99.90;;;;;;4785365;29;20479;-50
2023/08/04 08:05:50;;;;;;;5.22;1.73;;;17.00;99.90;;;;;;4802835;29;20039;-50
2023/08/04 08:08:17;;;;;;;4.55;1.75;;;17.10;99.90;;;;;;4801712;29;20413;-50
2023/08/04 08:10:43;;;;;;;3.60;1.48;;;17.10;99.90;;;;;;4799144;29;20050;-49
2023/08/04 08:13:08;;;;;;;3.10;1.60;;;17.30;99.90;;;;;;4802912;29;20043;-51
2023/08/04 08:15:35;;;;;;;3.85;1.63;;;17.20;99.90;;;;;;4804326;29;20093;-50
2023/08/04 08:18:02;;;;;;;5.63;1.60;;;17.40;99.90;;;;;;4804749;29;20047;-53
2023/08/04 08:20:28;;;;;;;5.07;1.90;;;17.40;99.90;;;;;;4803212;29;20051;-53
2023/08/04 08:22:54;;;;;;;3.83;1.58;;;17.40;99.90;;;;;;4802805;29;20034;-50
2023/08/04 08:25:20;;;;;;;4.45;1.65;;;17.40;99.90;;;;;;4803306;29;20385;-50
2023/08/04 08:27:46;;;;;;;3.22;1.58;;;17.50;99.90;;;;;;4804429;29;20042;-53
2023/08/04 08:30:11;;;;;;;4.13;1.50;;;17.60;99.90;;;;;;4803996;29;20047;-51
2023/08/04 08:32:37;;;;;;;5.07;1.60;;;17.70;99.90;;;;;;4805110;29;20047;-48
2023/08/04 08:35:03;;;;;;;4.97;1.90;;;17.80;99.90;;;;;;4803748;29;20051;-51
2023/08/04 08:37:29;;;;;;;3.22;1.20;;;18.00;99.90;;;;;;4804520;29;20047;-50
2023/08/04 08:39:55;;;;;;;1.73;0.95;;;18.00;99.90;;;;;;4806018;29;20053;-48
2023/08/04 08:42:21;;;;;;;2.13;1.10;;;18.10;99.90;;;;;;4806275;29;20053;-51
2023/08/04 08:44:46;;;;;;;2.40;1.20;;;18.20;99.90;;;;;;4805918;29;20034;-53
2023/08/04 08:47:13;;;;;;;2.90;1.50;;;18.40;99.90;;;;;;4803549;29;20495;-53
2023/08/04 08:49:45;;;;;;;3.05;1.35;;;18.40;99.90;;;;;;4805970;29;20053;-51
2023/08/04 08:52:11;;;;;;;3.97;1.33;;;18.50;99.90;;;;;;4805972;29;20055;-52
2023/08/04 08:54:37;;;;;;;2.75;1.15;;;18.40;99.90;;;;;;4805806;29;20053;-49
2023/08/04 08:57:05;;;;;;;3.10;1.10;;;18.60;99.90;;;;;;4804809;29;20165;-51
2023/08/04 08:59:32;;;;;;;2.25;0.90;;;18.50;99.90;;;;;;4803998;29;20043;-52
2023/08/04 09:02:00;;;;;;;2.13;0.90;;;18.60;99.90;;;;;;4804932;29;20472;-51
2023/08/04 09:04:27;;;;;;;2.75;1.33;;;18.50;99.90;;;;;;4803370;29;20050;-52
2023/08/04 09:06:55;;;;;;;3.03;1.05;;;18.60;99.90;;;;;;4798979;29;20055;-52
2023/08/04 09:09:21;;;;;;;4.22;1.00;;;18.60;99.90;;;;;;4803910;29;20113;-48
2023/08/04 09:11:47;;;;;;;2.25;0.95;;;18.50;99.90;;;;;;4802194;29;20130;-49
2023/08/04 09:14:14;;;;;;;1.98;0.90;;;18.60;99.90;;;;;;4804568;29;20055;-51
2023/08/04 09:16:42;;;;;;;2.35;0.80;;;18.50;99.90;;;;;;4803455;29;20065;-52
2023/08/04 09:19:09;;;;;;;2.92;0.90;;;18.50;99.90;;;;;;4802512;29;20047;-49
2023/08/04 09:21:36;;;;;;;2.67;0.82;;;18.50;99.90;;;;;;4804152;29;20646;-49
2023/08/04 09:24:04;;;;;;;2.95;0.88;;;18.50;99.90;;;;;;4803990;29;20053;-49
2023/08/04 09:26:46;;;;;;;3.85;1.10;;;18.60;99.90;;;;;;4802409;29;20054;-51
2023/08/04 09:29:13;;;;;;;4.22;1.00;;;18.80;99.90;;;;;;4801095;29;20047;-54
2023/08/04 09:31:41;;;;;;;4.40;0.90;;;18.90;99.90;;;;;;4803017;29;20039;-52
2023/08/04 09:34:09;;;;;;;4.53;1.02;;;19.00;99.90;;;;;;4804515;29;20046;-53
2023/08/04 09:36:43;;;;;;;5.07;1.23;;;19.10;99.90;;;;;;4804284;29;20105;-52
2023/08/04 09:39:12;;;;;;;7.00;1.27;;;19.20;99.90;;;;;;4803368;29;20054;-50
2023/08/04 09:41:47;;;;;;;4.70;1.48;;;19.30;99.90;;;;;;4803623;29;20054;-50
2023/08/04 09:44:14;;;;;;;6.22;1.30;;;19.50;99.90;;;;;;4801933;29;20054;-49
2023/08/04 09:46:47;;;;;;;6.30;1.40;;;19.60;99.90;;;;;;4802363;29;20054;-50
2023/08/04 09:49:13;;;;;;;5.97;1.43;;;19.70;99.90;;;;;;4800385;29;20055;-52
2023/08/04 09:51:43;;;;;;;4.85;1.30;;;19.80;99.90;;;;;;4803518;29;20046;-53
2023/08/04 09:54:10;;;;;;;6.68;1.23;;;19.90;99.90;;;;;;4805115;29;20062;-51
2023/08/04 09:56:36;;;;;;;7.65;1.40;;;19.90;99.90;;;;;;4802562;29;20413;-52
2023/08/04 09:59:03;;;;;;;5.65;1.52;;;19.90;99.90;;;;;;4800589;29;20552;-50
2023/08/04 10:01:29;;;;;;;6.45;1.60;;;19.90;99.90;;;;;;4803617;29;20045;-50
2023/08/04 10:03:57;;;;;;;5.63;1.50;;;19.90;99.90;;;;;;4802741;29;20047;-53
2023/08/04 10:06:24;;;;;;;5.07;1.50;;;19.90;99.90;;;;;;4800880;29;20046;-52
2023/08/04 10:08:53;;;;;;;6.40;1.63;;;19.90;99.90;;;;;;4787679;29;20518;-50
2023/08/04 10:11:20;;;;;;;4.78;1.30;;;19.90;99.90;;;;;;4803321;29;20082;-50
2023/08/04 10:13:49;;;;;;;5.68;1.67;;;19.90;99.90;;;;;;4816272;29;20046;-51
2023/08/04 10:16:17;;;;;;;4.70;1.35;;;20.10;99.90;;;;;;4803197;29;20125;-51
2023/08/04 10:18:55;;;;;;;4.78;1.20;;;20.20;99.90;;;;;;4803403;29;20398;-50
2023/08/04 10:21:30;;;;;;;5.32;1.42;;;20.30;99.90;;;;;;4815850;29;20055;-51
2023/08/04 10:23:58;;;;;;;6.68;1.60;;;20.30;99.90;;;;;;4801471;29;20062;-52
2023/08/04 10:26:24;;;;;;;6.22;1.65;;;20.30;99.90;;;;;;4801965;29;20081;-51
2023/08/04 10:29:07;;;;;;;6.25;1.80;;;20.40;99.90;;;;;;4803591;29;20467;-51
2023/08/04 10:31:50;;;;;;;6.00;1.33;;;20.50;99.90;;;;;;4803801;29;20050;-50
2023/08/04 10:34:31;;;;;;;7.90;1.80;;;20.50;99.90;;;;;;4803649;29;20050;-50
2023/08/04 10:37:01;;;;;;;5.25;1.58;;;20.50;99.90;;;;;;4801819;29;20502;-49
2023/08/04 10:39:28;;;;;;;6.35;1.48;;;20.50;99.90;;;;;;4800154;29;20086;-50
2023/08/04 10:41:55;;;;;;;5.40;1.50;;;20.50;99.90;;;;;;4799848;29;20125;-48
2023/08/04 10:44:24;;;;;;;4.72;1.27;;;20.60;99.90;;;;;;4803130;29;20054;-49
2023/08/04 10:46:50;;;;;;;3.53;1.15;;;20.50;99.90;;;;;;4799452;29;20038;-49
2023/08/04 10:49:15;;;;;;;4.63;1.38;;;20.50;99.90;;;;;;4802872;29;20057;-48
2023/08/04 10:51:44;;;;;;;6.25;1.30;;;20.60;99.90;;;;;;4804444;29;20039;-53
2023/08/04 10:54:10;;;;;;;6.43;1.48;;;20.50;99.90;;;;;;4804457;29;20118;-52
2023/08/04 10:56:37;;;;;;;7.28;1.48;;;20.60;99.90;;;;;;4804151;29;20142;-52
2023/08/04 10:59:08;;;;;;;5.30;1.60;;;20.50;99.90;;;;;;4804115;29;20395;-51
2023/08/04 11:01:34;;;;;;;4.50;1.35;;;20.40;99.90;;;;;;4804049;29;20043;-53
2023/08/04 11:04:00;;;;;;;4.70;1.25;;;20.40;99.90;;;;;;4803700;29;20100;-49
2023/08/04 11:06:25;;;;;;;5.70;1.20;;;20.40;99.90;;;;;;4804104;29;20057;-51
2023/08/04 11:08:51;;;;;;;4.05;1.15;;;20.50;99.90;;;;;;4803957;29;20043;-52
2023/08/04 11:11:17;;;;;;;5.07;1.48;;;20.70;99.90;;;;;;4802394;29;20108;-50
2023/08/04 11:13:43;;;;;;;4.20;1.27;;;20.80;99.90;;;;;;4804014;29;20126;-50
2023/08/04 11:16:09;;;;;;;6.55;1.65;;;20.80;99.90;;;;;;4803856;29;20126;-52
2023/08/04 11:18:35;;;;;;;4.32;1.13;;;20.80;99.90;;;;;;4803651;29;20146;-48
2023/08/04 11:21:01;;;;;;;4.88;1.40;;;20.80;99.90;;;;;;4803872;29;20049;-51
2023/08/04 11:23:29;;;;;;;6.68;1.77;;;20.70;99.90;;;;;;4802073;29;20050;-53
2023/08/04 11:25:56;;;;;;;7.18;1.63;;;20.70;99.90;;;;;;4803867;29;20046;-50
2023/08/04 11:28:22;;;;;;;6.95;1.50;;;20.70;99.90;;;;;;4803510;29;20080;-47
2023/08/04 11:30:48;;;;;;;4.63;1.27;;;20.80;99.90;;;;;;4803881;29;20050;-51
2023/08/04 11:33:18;;;;;;;5.88;1.33;;;20.80;99.90;;;;;;4803855;29;20133;-53
2023/08/04 11:35:45;;;;;;;5.65;1.55;;;20.80;99.90;;;;;;4803774;29;20066;-51
2023/08/04 11:38:11;;;;;;;5.40;1.30;;;20.60;99.90;;;;;;4803534;29;20158;-51
2023/08/04 11:40:53;;;;;;;5.15;1.45;;;20.50;99.90;;;;;;4803621;29;20395;-50
2023/08/04 11:43:18;;;;;;;5.25;1.27;;;20.40;99.90;;;;;;4803754;29;20039;-51
2023/08/04 11:45:48;;;;;;;5.18;1.10;;;20.50;99.90;;;;;;4803814;29;20372;-51
2023/08/04 11:48:14;;;;;;;6.20;1.20;;;20.80;99.90;;;;;;4804310;29;20127;-51
2023/08/04 11:50:40;;;;;;;4.97;1.00;;;21.10;99.90;;;;;;4806084;29;20054;-53
2023/08/04 11:53:06;;;;;;;8.13;1.52;;;21.50;99.90;;;;;;4807238;29;20039;-53
2023/08/04 11:55:34;;;;;;;6.05;1.15;;;21.90;99.90;;;;;;4807312;29;20043;-51
2023/08/04 11:58:00;;;;;;;6.03;1.40;;;22.10;99.90;;;;;;4790632;29;20077;-52
2023/08/04 12:00:36;;;;;;;4.20;1.20;;;22.10;99.90;;;;;;4806704;29;20078;-50
2023/08/04 12:03:04;;;;;;;5.35;1.58;;;22.10;99.90;;;;;;4807209;29;20051;-52
2023/08/04 12:05:36;;;;;;;5.63;1.30;;;22.00;99.90;;;;;;4806946;29;20034;-50
2023/08/04 12:08:13;;;;;;;4.90;1.60;;;21.70;99.90;;;;;;4806734;29;20053;-53
2023/08/04 12:10:38;;;;;;;4.38;1.00;;;21.50;99.90;;;;;;4806936;29;20484;-51
2023/08/04 12:13:05;;;;;;;4.25;1.30;;;21.40;99.90;;;;;;4807206;29;20039;-52
2023/08/04 12:15:51;;;;;;;5.30;1.10;;;21.40;99.90;;;;;;4807053;29;20039;-50
2023/08/04 12:18:29;;;;;;;4.95;1.05;;;21.70;99.90;;;;;;4807225;29;20444;-51
2023/08/04 12:20:56;;;;;;;7.50;1.20;;;22.10;99.90;;;;;;4806768;29;20503;-51
2023/08/04 12:23:22;;;;;;;3.90;1.20;;;22.40;99.90;;;;;;4807006;29;20117;-52
2023/08/04 12:25:47;;;;;;;4.97;1.50;;;22.70;99.90;;;;;;4806658;29;20121;-54
2023/08/04 12:28:13;;;;;;;5.38;1.17;;;23.00;99.90;;;;;;4806812;29;20069;-51
2023/08/04 12:30:39;;;;;;;5.57;1.40;;;23.20;99.90;;;;;;4805686;29;20095;-50
2023/08/04 12:33:05;;;;;;;4.18;1.10;;;23.40;99.90;;;;;;4805401;29;20644;-51
2023/08/04 12:35:30;;;;;;;4.25;1.40;;;23.60;99.90;;;;;;4805096;29;20084;-50
2023/08/04 12:37:57;;;;;;;7.78;1.17;;;23.80;99.90;;;;;;4805908;29;20038;-51
2023/08/04 12:40:23;;;;;;;5.72;1.30;;;24.00;99.90;;;;;;4804864;29;20058;-53
2023/08/04 12:42:48;;;;;;;8.65;1.38;;;23.90;99.90;;;;;;4805301;29;20046;-52
2023/08/04 12:45:14;;;;;;;6.75;1.60;;;23.60;99.90;;;;;;4806576;29;20046;-48